Brunei International Airport

Airport
ICAO code: 
WBSB
IATA Code: 
BWN
Summary
ICAO Region: 
APAC
Location: 
Bandar Seri Begawan, Brunei Muara
Serving: 
Brunei
Elevation: 
73 ft
Coordinates: 
Aerial View: 
4° 56' 47.322" N, 114° 55' 55.322" E
Metar
Observation
WBSB 191800Z 05002KT 7000 -TSRA FEW004 SCT012 FEW015CB BKN150 25/25 Q1011 NOSIG
Station
Brunei Airport
Date/Time
2022-05-19 18:00:00
Wind direction
50°
Wind speed
02 kts
Lowest cloud amount
few clouds
Temperature
25°C
Dew point
25°C
Humidity
100%
QNH
1011 hPa
Weather condition
n/a

International airport serving the sultanate of Brunei.

Climatology

Tropical Rainforest climate (Köppen climate classification Af) - almost no distinct seasons, average daily temperature around 27°C throughout the year. Extensive cloud cover and heavy rainfall prevent temperatures from rising much over 33°C. The diurnal temperature change is between 2°C and 5°C which is greater than the annual temperature range of 2°C. Rainfall is heavy and is usually convectional and in the afternoon.

Runways

Designator Length Width Surface Rops
3/21 3658 46 ASP Yes/Yes
Airport map: 
Aerial View: 

Accidents and Serious Incidents at or in the vicinity of WBSB

SKYbrary Partners:

Safety knowledge contributed by: